sensor_id;sensor_type;location;lat;lon;timestamp;temperature;humidity
9845;DHT22;4961;50.782;6.080;2022-11-04T00:01:49;11.20;99.90
9845;DHT22;4961;50.782;6.080;2022-11-04T00:04:21;11.20;99.90
9845;DHT22;4961;50.782;6.080;2022-11-04T00:06:49;11.20;99.90
9845;DHT22;4961;50.782;6.080;2022-11-04T00:09:21;11.20;99.90
9845;DHT22;4961;50.782;6.080;2022-11-04T00:11:50;11.20;99.90
9845;DHT22;4961;50.782;6.080;2022-11-04T00:14:38;11.20;99.90
9845;DHT22;4961;50.782;6.080;2022-11-04T00:17:09;11.20;99.90
9845;DHT22;4961;50.782;6.080;2022-11-04T00:19:48;11.20;99.90
9845;DHT22;4961;50.782;6.080;2022-11-04T00:22:35;11.10;99.90
9845;DHT22;4961;50.782;6.080;2022-11-04T00:25:21;11.10;99.90
9845;DHT22;4961;50.782;6.080;2022-11-04T00:28:13;11.00;99.90
9845;DHT22;4961;50.782;6.080;2022-11-04T00:31:01;11.00;99.90
9845;DHT22;4961;50.782;6.080;2022-11-04T00:33:44;11.00;99.90
9845;DHT22;4961;50.782;6.080;2022-11-04T00:36:14;11.00;99.90
9845;DHT22;4961;50.782;6.080;2022-11-04T00:38:43;10.90;99.90
9845;DHT22;4961;50.782;6.080;2022-11-04T00:41:11;10.90;99.90
9845;DHT22;4961;50.782;6.080;2022-11-04T00:43:54;10.80;99.90
9845;DHT22;4961;50.782;6.080;2022-11-04T00:46:24;10.80;99.90
9845;DHT22;4961;50.782;6.080;2022-11-04T00:48:52;10.80;99.90
9845;DHT22;4961;50.782;6.080;2022-11-04T00:51:21;10.70;99.90
9845;DHT22;4961;50.782;6.080;2022-11-04T00:53:51;10.80;99.90
9845;DHT22;4961;50.782;6.080;2022-11-04T00:56:19;10.80;99.90
9845;DHT22;4961;50.782;6.080;2022-11-04T00:58:48;10.80;99.90
9845;DHT22;4961;50.782;6.080;2022-11-04T01:01:17;10.80;99.90
9845;DHT22;4961;50.782;6.080;2022-11-04T01:03:49;10.70;99.90
9845;DHT22;4961;50.782;6.080;2022-11-04T01:06:18;10.60;99.90
9845;DHT22;4961;50.782;6.080;2022-11-04T01:08:48;10.60;99.90
9845;DHT22;4961;50.782;6.080;2022-11-04T01:11:16;10.60;99.90
9845;DHT22;4961;50.782;6.080;2022-11-04T01:13:44;10.60;99.90
9845;DHT22;4961;50.782;6.080;2022-11-04T01:16:14;10.60;99.90
9845;DHT22;4961;50.782;6.080;2022-11-04T01:18:42;10.60;99.90
9845;DHT22;4961;50.782;6.080;2022-11-04T01:21:12;10.60;99.90
9845;DHT22;4961;50.782;6.080;2022-11-04T01:23:41;10.50;99.90
9845;DHT22;4961;50.782;6.080;2022-11-04T01:26:15;10.50;99.90
9845;DHT22;4961;50.782;6.080;2022-11-04T01:28:44;10.40;99.90
9845;DHT22;4961;50.782;6.080;2022-11-04T01:31:14;10.40;99.90
9845;DHT22;4961;50.782;6.080;2022-11-04T01:33:43;10.40;99.90
9845;DHT22;4961;50.782;6.080;2022-11-04T01:36:14;10.30;99.90
9845;DHT22;4961;50.782;6.080;2022-11-04T01:38:42;10.40;99.90
9845;DHT22;4961;50.782;6.080;2022-11-04T01:41:17;10.40;99.90
9845;DHT22;4961;50.782;6.080;2022-11-04T01:43:49;10.40;99.90
9845;DHT22;4961;50.782;6.080;2022-11-04T01:46:32;10.40;99.90
9845;DHT22;4961;50.782;6.080;2022-11-04T01:49:11;10.40;99.90
9845;DHT22;4961;50.782;6.080;2022-11-04T01:51:45;10.50;99.90
9845;DHT22;4961;50.782;6.080;2022-11-04T01:54:17;10.40;99.90
9845;DHT22;4961;50.782;6.080;2022-11-04T01:56:48;10.50;99.90
9845;DHT22;4961;50.782;6.080;2022-11-04T01:59:21;10.50;99.90
9845;DHT22;4961;50.782;6.080;2022-11-04T02:01:52;10.40;99.90
9845;DHT22;4961;50.782;6.080;2022-11-04T02:04:22;10.40;99.90
9845;DHT22;4961;50.782;6.080;2022-11-04T02:06:55;10.30;99.90
9845;DHT22;4961;50.782;6.080;2022-11-04T02:09:25;10.30;99.90
9845;DHT22;4961;50.782;6.080;2022-11-04T02:11:56;10.30;99.90
9845;DHT22;4961;50.782;6.080;2022-11-04T02:14:43;10.40;99.90
9845;DHT22;4961;50.782;6.080;2022-11-04T02:17:25;10.40;99.90
9845;DHT22;4961;50.782;6.080;2022-11-04T02:20:22;10.40;99.90
9845;DHT22;4961;50.782;6.080;2022-11-04T02:23:29;10.40;99.90
9845;DHT22;4961;50.782;6.080;2022-11-04T02:29:35;10.20;99.90
9845;DHT22;4961;50.782;6.080;2022-11-04T02:32:13;10.20;99.90
9845;DHT22;4961;50.782;6.080;2022-11-04T02:34:57;10.20;99.90
9845;DHT22;4961;50.782;6.080;2022-11-04T02:37:35;10.20;99.90
9845;DHT22;4961;50.782;6.080;2022-11-04T02:40:17;10.20;99.90
9845;DHT22;4961;50.782;6.080;2022-11-04T02:42:54;10.20;99.90
9845;DHT22;4961;50.782;6.080;2022-11-04T02:45:34;10.20;99.90
9845;DHT22;4961;50.782;6.080;2022-11-04T02:48:09;10.20;99.90
9845;DHT22;4961;50.782;6.080;2022-11-04T02:50:43;10.20;99.90
9845;DHT22;4961;50.782;6.080;2022-11-04T02:53:15;10.20;99.90
9845;DHT22;4961;50.782;6.080;2022-11-04T02:55:48;10.30;99.90
9845;DHT22;4961;50.782;6.080;2022-11-04T02:58:22;10.30;99.90
9845;DHT22;4961;50.782;6.080;2022-11-04T03:00:54;10.30;99.90
9845;DHT22;4961;50.782;6.080;2022-11-04T03:03:26;10.30;99.90
9845;DHT22;4961;50.782;6.080;2022-11-04T03:05:57;10.30;99.90
9845;DHT22;4961;50.782;6.080;2022-11-04T03:08:31;10.20;99.90
9845;DHT22;4961;50.782;6.080;2022-11-04T03:11:03;10.20;99.90
9845;DHT22;4961;50.782;6.080;2022-11-04T03:13:35;10.20;99.90
9845;DHT22;4961;50.782;6.080;2022-11-04T03:16:09;10.20;99.90
9845;DHT22;4961;50.782;6.080;2022-11-04T03:18:45;10.20;99.90
9845;DHT22;4961;50.782;6.080;2022-11-04T03:21:18;10.30;99.90
9845;DHT22;4961;50.782;6.080;2022-11-04T03:23:47;10.30;99.90
9845;DHT22;4961;50.782;6.080;2022-11-04T03:26:22;10.30;99.90
9845;DHT22;4961;50.782;6.080;2022-11-04T03:29:06;10.30;99.90
9845;DHT22;4961;50.782;6.080;2022-11-04T03:31:40;10.40;99.90
9845;DHT22;4961;50.782;6.080;2022-11-04T03:34:10;10.40;99.90
9845;DHT22;4961;50.782;6.080;2022-11-04T03:36:38;10.40;99.90
9845;DHT22;4961;50.782;6.080;2022-11-04T03:39:09;10.50;99.90
9845;DHT22;4961;50.782;6.080;2022-11-04T03:41:41;10.50;99.90
9845;DHT22;4961;50.782;6.080;2022-11-04T03:44:10;10.40;99.90
9845;DHT22;4961;50.782;6.080;2022-11-04T03:46:42;10.40;99.90
9845;DHT22;4961;50.782;6.080;2022-11-04T03:49:11;10.50;99.90
9845;DHT22;4961;50.782;6.080;2022-11-04T03:51:40;10.50;99.90
9845;DHT22;4961;50.782;6.080;2022-11-04T03:54:08;10.50;99.90
9845;DHT22;4961;50.782;6.080;2022-11-04T03:56:55;10.50;99.90
9845;DHT22;4961;50.782;6.080;2022-11-04T03:59:53;10.50;99.90
9845;DHT22;4961;50.782;6.080;2022-11-04T04:02:34;10.50;99.90
9845;DHT22;4961;50.782;6.080;2022-11-04T04:05:11;10.60;99.90
9845;DHT22;4961;50.782;6.080;2022-11-04T04:07:48;10.60;99.90
9845;DHT22;4961;50.782;6.080;2022-11-04T04:10:22;10.60;99.90
9845;DHT22;4961;50.782;6.080;2022-11-04T04:13:20;10.60;99.90
9845;DHT22;4961;50.782;6.080;2022-11-04T04:15:54;10.60;99.90
9845;DHT22;4961;50.782;6.080;2022-11-04T04:18:30;10.60;99.90
9845;DHT22;4961;50.782;6.080;2022-11-04T04:21:02;10.50;99.90
9845;DHT22;4961;50.782;6.080;2022-11-04T04:23:33;10.50;99.90
9845;DHT22;4961;50.782;6.080;2022-11-04T04:26:20;10.50;99.90
9845;DHT22;4961;50.782;6.080;2022-11-04T04:29:07;10.50;99.90
9845;DHT22;4961;50.782;6.080;2022-11-04T04:31:37;10.50;99.90
9845;DHT22;4961;50.782;6.080;2022-11-04T04:34:21;10.50;99.90
9845;DHT22;4961;50.782;6.080;2022-11-04T04:36:53;10.40;99.90
9845;DHT22;4961;50.782;6.080;2022-11-04T04:39:28;10.50;99.90
9845;DHT22;4961;50.782;6.080;2022-11-04T04:42:15;10.40;99.90
9845;DHT22;4961;50.782;6.080;2022-11-04T04:45:04;10.50;99.90
9845;DHT22;4961;50.782;6.080;2022-11-04T04:47:41;10.40;99.90
9845;DHT22;4961;50.782;6.080;2022-11-04T04:50:13;10.30;99.90
9845;DHT22;4961;50.782;6.080;2022-11-04T04:52:46;10.30;99.90
9845;DHT22;4961;50.782;6.080;2022-11-04T04:55:15;10.30;99.90
9845;DHT22;4961;50.782;6.080;2022-11-04T04:57:44;10.30;99.90
9845;DHT22;4961;50.782;6.080;2022-11-04T05:00:14;10.30;99.90
9845;DHT22;4961;50.782;6.080;2022-11-04T05:02:44;10.30;99.90
9845;DHT22;4961;50.782;6.080;2022-11-04T05:05:14;10.40;99.90
9845;DHT22;4961;50.782;6.080;2022-11-04T05:07:42;10.30;99.90
9845;DHT22;4961;50.782;6.080;2022-11-04T05:10:12;10.30;99.90
9845;DHT22;4961;50.782;6.080;2022-11-04T05:12:41;10.30;99.90
9845;DHT22;4961;50.782;6.080;2022-11-04T05:15:27;10.30;99.90
9845;DHT22;4961;50.782;6.080;2022-11-04T05:17:59;10.30;99.90
9845;DHT22;4961;50.782;6.080;2022-11-04T05:20:28;10.20;99.90
9845;DHT22;4961;50.782;6.080;2022-11-04T05:23:00;10.20;99.90
9845;DHT22;4961;50.782;6.080;2022-11-04T05:25:28;10.20;99.90
9845;DHT22;4961;50.782;6.080;2022-11-04T05:27:59;10.20;99.90
9845;DHT22;4961;50.782;6.080;2022-11-04T05:30:28;10.20;99.90
9845;DHT22;4961;50.782;6.080;2022-11-04T05:32:57;10.20;99.90
9845;DHT22;4961;50.782;6.080;2022-11-04T05:35:33;10.20;99.90
9845;DHT22;4961;50.782;6.080;2022-11-04T05:38:03;10.20;99.90
9845;DHT22;4961;50.782;6.080;2022-11-04T05:40:31;10.20;99.90
9845;DHT22;4961;50.782;6.080;2022-11-04T05:42:59;10.30;99.90
9845;DHT22;4961;50.782;6.080;2022-11-04T05:45:28;10.30;99.90
9845;DHT22;4961;50.782;6.080;2022-11-04T05:47:57;10.30;99.90
9845;DHT22;4961;50.782;6.080;2022-11-04T05:50:25;10.40;99.90
9845;DHT22;4961;50.782;6.080;2022-11-04T05:52:57;10.30;99.90
9845;DHT22;4961;50.782;6.080;2022-11-04T05:55:25;10.30;99.90
9845;DHT22;4961;50.782;6.080;2022-11-04T05:57:55;10.40;99.90
9845;DHT22;4961;50.782;6.080;2022-11-04T06:00:25;10.40;99.90
9845;DHT22;4961;50.782;6.080;2022-11-04T06:02:54;10.50;99.90
9845;DHT22;4961;50.782;6.080;2022-11-04T06:05:25;10.50;99.90
9845;DHT22;4961;50.782;6.080;2022-11-04T06:07:54;10.60;99.90
9845;DHT22;4961;50.782;6.080;2022-11-04T06:10:24;10.60;99.90
9845;DHT22;4961;50.782;6.080;2022-11-04T06:12:52;10.60;99.90
9845;DHT22;4961;50.782;6.080;2022-11-04T06:15:21;10.60;99.90
9845;DHT22;4961;50.782;6.080;2022-11-04T06:17:49;10.60;99.90
9845;DHT22;4961;50.782;6.080;2022-11-04T06:20:17;10.60;99.90
9845;DHT22;4961;50.782;6.080;2022-11-04T06:22:46;10.60;99.90
9845;DHT22;4961;50.782;6.080;2022-11-04T06:25:17;10.60;99.90
9845;DHT22;4961;50.782;6.080;2022-11-04T06:27:47;10.60;99.90
9845;DHT22;4961;50.782;6.080;2022-11-04T06:30:15;10.60;99.90
9845;DHT22;4961;50.782;6.080;2022-11-04T06:32:44;10.60;99.90
9845;DHT22;4961;50.782;6.080;2022-11-04T06:35:12;10.60;99.90
9845;DHT22;4961;50.782;6.080;2022-11-04T06:37:40;10.60;99.90
9845;DHT22;4961;50.782;6.080;2022-11-04T06:40:09;10.60;99.90
9845;DHT22;4961;50.782;6.080;2022-11-04T06:42:37;10.70;99.90
9845;DHT22;4961;50.782;6.080;2022-11-04T06:45:08;10.70;99.90
9845;DHT22;4961;50.782;6.080;2022-11-04T06:47:37;10.70;99.90
9845;DHT22;4961;50.782;6.080;2022-11-04T06:50:06;10.70;99.90
9845;DHT22;4961;50.782;6.080;2022-11-04T06:52:35;10.70;99.90
9845;DHT22;4961;50.782;6.080;2022-11-04T06:55:09;10.70;99.90
9845;DHT22;4961;50.782;6.080;2022-11-04T06:57:37;10.70;99.90
9845;DHT22;4961;50.782;6.080;2022-11-04T07:00:08;10.70;99.90
9845;DHT22;4961;50.782;6.080;2022-11-04T07:02:37;10.70;99.90
9845;DHT22;4961;50.782;6.080;2022-11-04T07:05:06;10.70;99.90
9845;DHT22;4961;50.782;6.080;2022-11-04T07:07:37;10.70;99.90
9845;DHT22;4961;50.782;6.080;2022-11-04T07:10:06;10.70;99.90
9845;DHT22;4961;50.782;6.080;2022-11-04T07:12:34;10.70;99.90
9845;DHT22;4961;50.782;6.080;2022-11-04T07:15:03;10.80;99.90
9845;DHT22;4961;50.782;6.080;2022-11-04T07:17:33;10.80;99.90
9845;DHT22;4961;50.782;6.080;2022-11-04T07:20:02;10.80;99.90
9845;DHT22;4961;50.782;6.080;2022-11-04T07:22:35;10.80;99.90
9845;DHT22;4961;50.782;6.080;2022-11-04T07:25:04;10.90;99.90
9845;DHT22;4961;50.782;6.080;2022-11-04T07:27:34;10.90;99.90
9845;DHT22;4961;50.782;6.080;2022-11-04T07:30:03;10.90;99.90
9845;DHT22;4961;50.782;6.080;2022-11-04T07:32:34;11.00;99.90
9845;DHT22;4961;50.782;6.080;2022-11-04T07:35:02;11.00;99.90
9845;DHT22;4961;50.782;6.080;2022-11-04T07:37:31;11.00;99.90
9845;DHT22;4961;50.782;6.080;2022-11-04T07:39:59;11.00;99.90
9845;DHT22;4961;50.782;6.080;2022-11-04T07:42:27;11.00;99.90
9845;DHT22;4961;50.782;6.080;2022-11-04T07:44:56;11.10;99.90
9845;DHT22;4961;50.782;6.080;2022-11-04T07:47:28;11.10;99.90
9845;DHT22;4961;50.782;6.080;2022-11-04T07:49:58;11.20;99.90
9845;DHT22;4961;50.782;6.080;2022-11-04T07:52:31;11.20;99.90
9845;DHT22;4961;50.782;6.080;2022-11-04T07:54:59;11.20;99.90
9845;DHT22;4961;50.782;6.080;2022-11-04T07:57:28;11.20;99.90
9845;DHT22;4961;50.782;6.080;2022-11-04T07:59:57;11.20;99.90
9845;DHT22;4961;50.782;6.080;2022-11-04T08:02:26;11.20;99.90
9845;DHT22;4961;50.782;6.080;2022-11-04T08:05:02;11.30;99.90
9845;DHT22;4961;50.782;6.080;2022-11-04T08:07:34;11.30;99.90
9845;DHT22;4961;50.782;6.080;2022-11-04T08:10:03;11.30;99.90
9845;DHT22;4961;50.782;6.080;2022-11-04T08:12:32;11.30;99.90
9845;DHT22;4961;50.782;6.080;2022-11-04T08:15:00;11.30;99.90
9845;DHT22;4961;50.782;6.080;2022-11-04T08:17:29;11.40;99.90
9845;DHT22;4961;50.782;6.080;2022-11-04T08:19:58;11.30;99.90
9845;DHT22;4961;50.782;6.080;2022-11-04T08:22:28;11.40;99.90
9845;DHT22;4961;50.782;6.080;2022-11-04T08:24:59;11.40;99.90
9845;DHT22;4961;50.782;6.080;2022-11-04T08:27:27;11.40;99.90
9845;DHT22;4961;50.782;6.080;2022-11-04T08:29:56;11.40;99.90
9845;DHT22;4961;50.782;6.080;2022-11-04T08:32:24;11.40;99.90
9845;DHT22;4961;50.782;6.080;2022-11-04T08:34:53;11.40;99.90
9845;DHT22;4961;50.782;6.080;2022-11-04T08:37:22;11.40;99.90
9845;DHT22;4961;50.782;6.080;2022-11-04T08:39:52;11.40;99.90
9845;DHT22;4961;50.782;6.080;2022-11-04T08:42:20;11.40;99.90
9845;DHT22;4961;50.782;6.080;2022-11-04T08:44:50;11.40;99.90
9845;DHT22;4961;50.782;6.080;2022-11-04T08:47:18;11.40;99.90
9845;DHT22;4961;50.782;6.080;2022-11-04T08:49:47;11.40;99.90
9845;DHT22;4961;50.782;6.080;2022-11-04T08:52:16;11.40;99.90
9845;DHT22;4961;50.782;6.080;2022-11-04T08:54:49;11.50;99.90
9845;DHT22;4961;50.782;6.080;2022-11-04T08:57:27;11.50;99.90
9845;DHT22;4961;50.782;6.080;2022-11-04T09:00:01;11.50;99.90
9845;DHT22;4961;50.782;6.080;2022-11-04T09:02:34;11.50;99.90
9845;DHT22;4961;50.782;6.080;2022-11-04T09:05:12;11.50;99.90
9845;DHT22;4961;50.782;6.080;2022-11-04T09:07:41;11.60;99.90
9845;DHT22;4961;50.782;6.080;2022-11-04T09:10:11;11.60;99.90
9845;DHT22;4961;50.782;6.080;2022-11-04T09:12:41;11.70;99.90
9845;DHT22;4961;50.782;6.080;2022-11-04T09:15:10;11.70;99.90
9845;DHT22;4961;50.782;6.080;2022-11-04T09:17:39;11.70;99.90
9845;DHT22;4961;50.782;6.080;2022-11-04T09:20:14;11.80;99.90
9845;DHT22;4961;50.782;6.080;2022-11-04T09:23:06;11.90;99.90
9845;DHT22;4961;50.782;6.080;2022-11-04T09:25:43;11.90;99.90
9845;DHT22;4961;50.782;6.080;2022-11-04T09:28:13;12.00;99.90
9845;DHT22;4961;50.782;6.080;2022-11-04T09:30:41;12.00;99.90
9845;DHT22;4961;50.782;6.080;2022-11-04T09:33:09;12.00;99.90
9845;DHT22;4961;50.782;6.080;2022-11-04T09:35:38;12.00;99.90
9845;DHT22;4961;50.782;6.080;2022-11-04T09:38:06;12.00;99.90
9845;DHT22;4961;50.782;6.080;2022-11-04T09:40:35;12.10;99.90
9845;DHT22;4961;50.782;6.080;2022-11-04T09:43:17;12.10;99.90
9845;DHT22;4961;50.782;6.080;2022-11-04T09:45:48;12.20;99.90
9845;DHT22;4961;50.782;6.080;2022-11-04T09:48:26;12.30;99.90
9845;DHT22;4961;50.782;6.080;2022-11-04T09:50:57;12.30;99.90
9845;DHT22;4961;50.782;6.080;2022-11-04T09:53:30;12.30;99.90
9845;DHT22;4961;50.782;6.080;2022-11-04T09:56:05;12.40;99.90
9845;DHT22;4961;50.782;6.080;2022-11-04T09:58:36;12.40;99.90
9845;DHT22;4961;50.782;6.080;2022-11-04T10:01:18;12.40;99.90
9845;DHT22;4961;50.782;6.080;2022-11-04T10:04:03;12.40;99.90
9845;DHT22;4961;50.782;6.080;2022-11-04T10:06:42;12.40;99.90
9845;DHT22;4961;50.782;6.080;2022-11-04T10:09:25;12.40;99.90
9845;DHT22;4961;50.782;6.080;2022-11-04T10:12:06;12.40;99.90
9845;DHT22;4961;50.782;6.080;2022-11-04T10:15:09;12.50;99.90
9845;DHT22;4961;50.782;6.080;2022-11-04T10:17:58;12.50;99.90
9845;DHT22;4961;50.782;6.080;2022-11-04T10:20:42;12.50;99.90
9845;DHT22;4961;50.782;6.080;2022-11-04T10:23:20;12.50;99.90
9845;DHT22;4961;50.782;6.080;2022-11-04T10:25:56;12.40;99.90
9845;DHT22;4961;50.782;6.080;2022-11-04T10:28:30;12.50;99.90
9845;DHT22;4961;50.782;6.080;2022-11-04T10:31:04;12.50;99.90
9845;DHT22;4961;50.782;6.080;2022-11-04T10:33:34;12.50;99.90
9845;DHT22;4961;50.782;6.080;2022-11-04T10:36:11;12.40;99.90
9845;DHT22;4961;50.782;6.080;2022-11-04T10:38:43;12.40;99.90
9845;DHT22;4961;50.782;6.080;2022-11-04T10:41:22;12.40;99.90
9845;DHT22;4961;50.782;6.080;2022-11-04T10:43:55;12.30;99.90
9845;DHT22;4961;50.782;6.080;2022-11-04T10:46:38;12.30;99.90
9845;DHT22;4961;50.782;6.080;2022-11-04T10:52:06;12.50;99.90
9845;DHT22;4961;50.782;6.080;2022-11-04T10:54:38;12.70;99.90
9845;DHT22;4961;50.782;6.080;2022-11-04T10:57:08;13.10;99.90
9845;DHT22;4961;50.782;6.080;2022-11-04T10:59:51;13.30;99.90
9845;DHT22;4961;50.782;6.080;2022-11-04T11:02:43;13.40;99.90
9845;DHT22;4961;50.782;6.080;2022-11-04T11:05:13;13.50;99.90
9845;DHT22;4961;50.782;6.080;2022-11-04T11:07:46;13.60;99.90
9845;DHT22;4961;50.782;6.080;2022-11-04T11:10:17;13.60;99.90
9845;DHT22;4961;50.782;6.080;2022-11-04T11:12:53;13.80;99.90
9845;DHT22;4961;50.782;6.080;2022-11-04T11:15:33;14.00;99.90
9845;DHT22;4961;50.782;6.080;2022-11-04T11:18:16;14.30;99.90
9845;DHT22;4961;50.782;6.080;2022-11-04T11:20:48;14.40;99.90
9845;DHT22;4961;50.782;6.080;2022-11-04T11:23:38;14.40;99.90
9845;DHT22;4961;50.782;6.080;2022-11-04T11:26:08;14.60;99.90
9845;DHT22;4961;50.782;6.080;2022-11-04T11:28:39;14.80;99.90
9845;DHT22;4961;50.782;6.080;2022-11-04T11:31:10;14.90;99.90
9845;DHT22;4961;50.782;6.080;2022-11-04T11:33:49;14.90;99.90
9845;DHT22;4961;50.782;6.080;2022-11-04T11:36:21;14.80;99.90
9845;DHT22;4961;50.782;6.080;2022-11-04T11:39:03;14.90;99.90
9845;DHT22;4961;50.782;6.080;2022-11-04T11:41:34;15.10;99.90
9845;DHT22;4961;50.782;6.080;2022-11-04T11:44:19;15.30;99.90
9845;DHT22;4961;50.782;6.080;2022-11-04T11:46:52;15.20;99.90
9845;DHT22;4961;50.782;6.080;2022-11-04T11:49:25;15.10;99.90
9845;DHT22;4961;50.782;6.080;2022-11-04T11:51:55;14.90;99.90
9845;DHT22;4961;50.782;6.080;2022-11-04T11:54:45;14.70;99.90
9845;DHT22;4961;50.782;6.080;2022-11-04T11:57:28;14.50;99.90
9845;DHT22;4961;50.782;6.080;2022-11-04T12:00:03;14.20;99.90
9845;DHT22;4961;50.782;6.080;2022-11-04T12:02:56;14.10;99.90
9845;DHT22;4961;50.782;6.080;2022-11-04T12:05:33;13.90;99.90
9845;DHT22;4961;50.782;6.080;2022-11-04T12:08:45;13.80;99.90
9845;DHT22;4961;50.782;6.080;2022-11-04T12:11:44;13.70;99.90
9845;DHT22;4961;50.782;6.080;2022-11-04T12:14:23;13.50;99.90
9845;DHT22;4961;50.782;6.080;2022-11-04T12:17:00;13.50;99.90
9845;DHT22;4961;50.782;6.080;2022-11-04T12:19:44;13.40;99.90
9845;DHT22;4961;50.782;6.080;2022-11-04T12:22:31;13.30;99.90
9845;DHT22;4961;50.782;6.080;2022-11-04T12:25:13;13.30;99.90
9845;DHT22;4961;50.782;6.080;2022-11-04T12:27:48;13.30;99.90
9845;DHT22;4961;50.782;6.080;2022-11-04T12:30:20;13.40;99.90
9845;DHT22;4961;50.782;6.080;2022-11-04T12:33:10;13.40;99.90
9845;DHT22;4961;50.782;6.080;2022-11-04T12:35:53;13.40;99.90
9845;DHT22;4961;50.782;6.080;2022-11-04T12:38:35;13.40;99.90
9845;DHT22;4961;50.782;6.080;2022-11-04T12:41:14;13.40;99.90
9845;DHT22;4961;50.782;6.080;2022-11-04T12:44:12;13.40;99.90
9845;DHT22;4961;50.782;6.080;2022-11-04T12:47:00;13.40;99.90
9845;DHT22;4961;50.782;6.080;2022-11-04T12:50:00;13.40;99.90
9845;DHT22;4961;50.782;6.080;2022-11-04T12:52:39;13.40;99.90
9845;DHT22;4961;50.782;6.080;2022-11-04T12:55:26;13.40;99.90
9845;DHT22;4961;50.782;6.080;2022-11-04T12:58:05;13.40;99.90
9845;DHT22;4961;50.782;6.080;2022-11-04T13:00:40;13.40;99.90
9845;DHT22;4961;50.782;6.080;2022-11-04T13:03:13;13.50;99.90
9845;DHT22;4961;50.782;6.080;2022-11-04T13:05:47;13.60;99.90
9845;DHT22;4961;50.782;6.080;2022-11-04T13:08:22;13.60;99.90
9845;DHT22;4961;50.782;6.080;2022-11-04T13:10:56;13.60;99.90
9845;DHT22;4961;50.782;6.080;2022-11-04T13:13:30;13.50;99.90
9845;DHT22;4961;50.782;6.080;2022-11-04T13:16:03;13.50;99.90
9845;DHT22;4961;50.782;6.080;2022-11-04T13:18:37;13.40;99.90
9845;DHT22;4961;50.782;6.080;2022-11-04T13:21:09;13.40;99.90
9845;DHT22;4961;50.782;6.080;2022-11-04T13:23:44;13.30;99.90
9845;DHT22;4961;50.782;6.080;2022-11-04T13:26:15;13.20;99.90
9845;DHT22;4961;50.782;6.080;2022-11-04T13:28:48;13.20;99.90
9845;DHT22;4961;50.782;6.080;2022-11-04T13:31:28;13.10;99.90
9845;DHT22;4961;50.782;6.080;2022-11-04T13:34:05;13.00;99.90
9845;DHT22;4961;50.782;6.080;2022-11-04T13:36:43;13.00;99.90
9845;DHT22;4961;50.782;6.080;2022-11-04T13:39:17;13.00;99.90
9845;DHT22;4961;50.782;6.080;2022-11-04T13:42:18;13.00;99.90
9845;DHT22;4961;50.782;6.080;2022-11-04T13:44:51;12.90;99.90
9845;DHT22;4961;50.782;6.080;2022-11-04T13:47:26;12.90;99.90
9845;DHT22;4961;50.782;6.080;2022-11-04T13:49:59;12.90;99.90
9845;DHT22;4961;50.782;6.080;2022-11-04T13:52:30;12.80;99.90
9845;DHT22;4961;50.782;6.080;2022-11-04T13:55:02;12.80;99.90
9845;DHT22;4961;50.782;6.080;2022-11-04T13:57:48;12.80;99.90
9845;DHT22;4961;50.782;6.080;2022-11-04T14:00:21;12.70;99.90
9845;DHT22;4961;50.782;6.080;2022-11-04T14:02:50;12.60;99.90
9845;DHT22;4961;50.782;6.080;2022-11-04T14:05:45;12.60;99.90
9845;DHT22;4961;50.782;6.080;2022-11-04T14:08:24;12.60;99.90
9845;DHT22;4961;50.782;6.080;2022-11-04T14:11:04;12.70;99.90
9845;DHT22;4961;50.782;6.080;2022-11-04T14:13:46;12.60;99.90
9845;DHT22;4961;50.782;6.080;2022-11-04T14:16:43;12.60;99.90
9845;DHT22;4961;50.782;6.080;2022-11-04T14:22:33;12.60;99.90
9845;DHT22;4961;50.782;6.080;2022-11-04T14:25:20;12.60;99.90
9845;DHT22;4961;50.782;6.080;2022-11-04T14:27:50;12.70;99.90
9845;DHT22;4961;50.782;6.080;2022-11-04T14:30:33;12.70;99.90
9845;DHT22;4961;50.782;6.080;2022-11-04T14:33:05;12.70;99.90
9845;DHT22;4961;50.782;6.080;2022-11-04T14:35:35;12.70;99.90
9845;DHT22;4961;50.782;6.080;2022-11-04T14:38:25;12.70;99.90
9845;DHT22;4961;50.782;6.080;2022-11-04T14:41:19;12.70;99.90
9845;DHT22;4961;50.782;6.080;2022-11-04T14:43:49;12.70;99.90
9845;DHT22;4961;50.782;6.080;2022-11-04T14:46:22;12.70;99.90
9845;DHT22;4961;50.782;6.080;2022-11-04T14:48:54;12.70;99.90
9845;DHT22;4961;50.782;6.080;2022-11-04T14:51:26;12.70;99.90
9845;DHT22;4961;50.782;6.080;2022-11-04T14:54:03;12.70;99.90
9845;DHT22;4961;50.782;6.080;2022-11-04T14:56:32;12.70;99.90
9845;DHT22;4961;50.782;6.080;2022-11-04T14:59:03;12.70;99.90
9845;DHT22;4961;50.782;6.080;2022-11-04T15:01:36;12.60;99.90
9845;DHT22;4961;50.782;6.080;2022-11-04T15:04:17;12.60;99.90
9845;DHT22;4961;50.782;6.080;2022-11-04T15:06:53;12.60;99.90
9845;DHT22;4961;50.782;6.080;2022-11-04T15:09:23;12.60;99.90
9845;DHT22;4961;50.782;6.080;2022-11-04T15:11:59;12.60;99.90
9845;DHT22;4961;50.782;6.080;2022-11-04T15:14:48;12.60;99.90
9845;DHT22;4961;50.782;6.080;2022-11-04T15:17:19;12.60;99.90
9845;DHT22;4961;50.782;6.080;2022-11-04T15:19:50;12.60;99.90
9845;DHT22;4961;50.782;6.080;2022-11-04T15:22:19;12.50;99.90
9845;DHT22;4961;50.782;6.080;2022-11-04T15:24:47;12.60;99.90
9845;DHT22;4961;50.782;6.080;2022-11-04T15:27:27;12.50;99.90
9845;DHT22;4961;50.782;6.080;2022-11-04T15:29:58;12.50;99.90
9845;DHT22;4961;50.782;6.080;2022-11-04T15:32:29;12.50;99.90
9845;DHT22;4961;50.782;6.080;2022-11-04T15:34:58;12.50;99.90
9845;DHT22;4961;50.782;6.080;2022-11-04T15:37:27;12.50;99.90
9845;DHT22;4961;50.782;6.080;2022-11-04T15:39:57;12.50;99.90
9845;DHT22;4961;50.782;6.080;2022-11-04T15:42:28;12.50;99.90
9845;DHT22;4961;50.782;6.080;2022-11-04T15:45:33;12.50;99.90
9845;DHT22;4961;50.782;6.080;2022-11-04T15:48:24;12.50;99.90
9845;DHT22;4961;50.782;6.080;2022-11-04T15:51:15;12.50;99.90
9845;DHT22;4961;50.782;6.080;2022-11-04T15:53:50;12.50;99.90
9845;DHT22;4961;50.782;6.080;2022-11-04T15:56:23;12.40;99.90
9845;DHT22;4961;50.782;6.080;2022-11-04T15:58:54;12.40;99.90
9845;DHT22;4961;50.782;6.080;2022-11-04T16:01:23;12.40;99.90
9845;DHT22;4961;50.782;6.080;2022-11-04T16:03:57;12.40;99.90
9845;DHT22;4961;50.782;6.080;2022-11-04T16:06:34;12.40;99.90
9845;DHT22;4961;50.782;6.080;2022-11-04T16:09:14;12.40;99.90
9845;DHT22;4961;50.782;6.080;2022-11-04T16:12:07;12.40;99.90
9845;DHT22;4961;50.782;6.080;2022-11-04T16:14:46;12.30;99.90
9845;DHT22;4961;50.782;6.080;2022-11-04T16:17:14;12.30;99.90
9845;DHT22;4961;50.782;6.080;2022-11-04T16:19:46;12.30;99.90
9845;DHT22;4961;50.782;6.080;2022-11-04T16:22:19;12.30;99.90
9845;DHT22;4961;50.782;6.080;2022-11-04T16:24:49;12.20;99.90
9845;DHT22;4961;50.782;6.080;2022-11-04T16:27:20;12.30;99.90
9845;DHT22;4961;50.782;6.080;2022-11-04T16:30:01;12.30;99.90
9845;DHT22;4961;50.782;6.080;2022-11-04T16:32:40;12.20;99.90
9845;DHT22;4961;50.782;6.080;2022-11-04T16:35:15;12.20;99.90
9845;DHT22;4961;50.782;6.080;2022-11-04T16:37:46;12.20;99.90
9845;DHT22;4961;50.782;6.080;2022-11-04T16:40:14;12.20;99.90
9845;DHT22;4961;50.782;6.080;2022-11-04T16:42:43;12.20;99.90
9845;DHT22;4961;50.782;6.080;2022-11-04T16:45:23;12.20;99.90
9845;DHT22;4961;50.782;6.080;2022-11-04T16:47:52;12.20;99.90
9845;DHT22;4961;50.782;6.080;2022-11-04T16:50:25;12.20;99.90
9845;DHT22;4961;50.782;6.080;2022-11-04T16:52:53;12.20;99.90
9845;DHT22;4961;50.782;6.080;2022-11-04T16:55:22;12.20;99.90
9845;DHT22;4961;50.782;6.080;2022-11-04T16:57:57;12.10;99.90
9845;DHT22;4961;50.782;6.080;2022-11-04T17:00:27;12.10;99.90